Flight Track Log - Related Links

Times and Time Zones

All times are in EDT time to prevent confusion due to time zone crossing. See the EJA646 flight status page for this flight to view local times or setup timezone preferences in your user account.

Time Position Orientation Groundspeed Altitude Reporting Facility
EDT Latitude Longitude Course Direction KTS MPH feet Rate Location/Type
Thu 04:48:58 PM 40.8333 -74.0833 252° West 159 183 1,200  Level New York TRACON
Thu 04:49:58 PM 40.8333 -74.1667 270° West 220 253 2,200 2,450 Climbing New York TRACON
Thu 04:50:58 PM 40.8333 -74.2500 270° West 235 270 6,100 3,133 Climbing New York TRACON
Thu 04:52:58 PM 40.7761 -74.4156 246° West 250 288 11,600 2,552 Climbing New York Center
Thu 04:53:59 PM 40.7464 -74.5017 246° West 268 308 13,800 2,033 Climbing New York Center
Thu 04:54:00 PM 40.6582 -74.6674 252° West  Level FlightAware Approximate
Thu 04:54:59 PM 40.7119 -74.6067 247° West 279 321 15,700  Level New York Center
Thu 04:56:00 PM 40.6775 -74.7006 244° Southwest 299 344 17,500 1,835 Climbing New York Center
Thu 04:57:00 PM 40.6383 -74.8103 245° Southwest 312 359 19,400 1,888 Climbing New York Center
Thu 04:58:00 PM 40.5822 -74.9190 237° Southwest  Level FlightAware Approximate
Thu 04:58:58 PM 40.5622 -75.0189 237° Southwest 317 365 23,100  Level New York Center
Thu 04:59:59 PM 40.5067 -75.1164 233° Southwest 325 374 24,500 1,400 Climbing New York Center
Thu 05:00:58 PM 40.4447 -75.2136 230° Southwest 345 397 25,900 1,361 Climbing New York Center
Thu 05:01:58 PM 40.3825 -75.3158 231° Southwest 356 410 27,200 1,350 Climbing New York Center
Thu 05:02:58 PM 40.3203 -75.4125 230° Southwest 356 410 28,600 1,339 Climbing New York Center
Thu 05:03:59 PM 40.2561 -75.5086 229° Southwest 361 415 29,900 1,180 Climbing New York Center
Thu 05:05:00 PM 40.1975 -75.6133 234° Southwest 361 415 31,000 1,109 Climbing New York Center
Thu 05:05:58 PM 40.1431 -75.7236 237° Southwest 366 421 32,100 1,160 Climbing New York Center
Thu 05:06:59 PM 40.0861 -75.8364 237° Southwest 366 421 33,300 1,230 Climbing New York Center
Thu 05:08:00 PM 40.0311 -75.9461 237° Southwest 366 421 34,600 1,150 Climbing New York Center
Thu 05:08:59 PM 39.9742 -76.0558 236° Southwest 366 421 35,600 706 Climbing New York Center
Thu 05:09:59 PM 39.9211 -76.1683 238° Southwest 371 427 36,000 198 Climbing New York Center
Thu 05:11:00 PM 39.8625 -76.2639 231° Southwest 397 457 36,000  Level New York Center
Thu 05:12:00 PM 39.7900 -76.4150 238° Southwest 408 470 36,000  Level Washington Center
Thu 05:13:00 PM 39.7244 -76.5331 234° Southwest 414 476 36,000  Level Washington Center
Thu 05:14:00 PM 39.6611 -76.6564 236° Southwest 414 476 36,000  Level Washington Center
Thu 05:15:00 PM 39.5994 -76.7711 235° Southwest 414 476 36,000  Level Washington Center
Thu 05:16:00 PM 39.5378 -76.8911 236° Southwest 414 476 36,000  Level Washington Center
Thu 05:17:00 PM 39.4700 -77.0028 232° Southwest 409 471 36,000  Level Washington Center
Thu 05:18:00 PM 39.3856 -77.0925 219° Southwest 399 459 36,000  Level Washington Center
Thu 05:19:00 PM 39.2989 -77.1847 219° Southwest 399 459 36,000  Level Washington Center
Thu 05:20:00 PM 39.2142 -77.2739 219° Southwest 399 459 36,000  Level Washington Center
Thu 05:21:00 PM 39.1275 -77.3656 219° Southwest 404 465 36,000  Level Washington Center
Thu 05:22:00 PM 39.0408 -77.4544 219° Southwest 404 465 36,000  Level Washington Center
Thu 05:23:00 PM 38.9558 -77.5431 219° Southwest 404 465 36,000  Level Washington Center
Thu 05:24:00 PM 38.8797 -77.6208 219° Southwest 397 457 36,000  Level Washington Center
Thu 05:25:00 PM 38.7861 -77.7169 219° Southwest 391 450 36,000  Level Washington Center
Thu 05:26:00 PM 38.7056 -77.7997 219° Southwest 400 460 36,000  Level Washington Center
Thu 05:27:00 PM 38.6244 -77.8931 222° Southwest 400 460 36,000  Level Washington Center
Thu 05:28:00 PM 38.5597 -78.0050 234° Southwest 393 452 36,000  Level Washington Center
Thu 05:29:00 PM 38.4906 -78.1222 233° Southwest 404 465 36,000  Level Washington Center
Thu 05:30:00 PM 38.4236 -78.2339 233° Southwest 404 465 36,000  Level Washington Center
Thu 05:31:00 PM 38.3564 -78.3481 233° Southwest 409 471 36,000  Level Washington Center
Thu 05:32:00 PM 38.2892 -78.4619 233° Southwest 409 471 36,000  Level Washington Center
Thu 05:33:00 PM 38.2258 -78.5786 235° Southwest 403 464 36,000  Level Washington Center
Thu 05:34:00 PM 38.1561 -78.6919 232° Southwest 403 464 36,000  Level Washington Center
Thu 05:35:00 PM 38.0886 -78.8053 233° Southwest 408 470 36,000  Level Washington Center
Thu 05:36:00 PM 38.0100 -78.9336 232° Southwest 408 470 36,000  Level Washington Center
Thu 05:37:00 PM 37.9419 -79.0492 233° Southwest 408 470 36,000  Level Washington Center
Thu 05:38:00 PM 37.8761 -79.1644 234° Southwest 413 475 36,000  Level Washington Center
Thu 05:39:00 PM 37.8139 -79.2903 238° Southwest 418 481 36,000  Level Washington Center
Thu 05:40:00 PM 37.7603 -79.4006 238° Southwest 418 481 36,000  Level Washington Center
Thu 05:41:00 PM 37.6939 -79.5233 236° Southwest 425 489 36,000  Level Washington Center
Thu 05:42:00 PM 37.6267 -79.6589 238° Southwest 425 489 36,000  Level Washington Center
Thu 05:43:00 PM 37.5728 -79.7686 238° Southwest 425 489 36,000  Level Washington Center
Thu 05:44:00 PM 37.5033 -79.9086 238° Southwest 425 489 36,000  Level Washington Center
Thu 05:45:53 PM 37.3828 -80.1369 236° Southwest 437 503 36,000  Level Atlanta Center
Thu 05:46:53 PM 37.3200 -80.2603 237° Southwest 432 497 36,000  Level Atlanta Center
Thu 05:47:53 PM 37.2569 -80.3806 237° Southwest 427 491 36,000  Level Atlanta Center
Thu 05:48:53 PM 37.2017 -80.4872 237° Southwest 427 491 36,000  Level Atlanta Center
Thu 05:49:53 PM 37.1386 -80.6100 237° Southwest 422 486 36,000  Level Atlanta Center
Thu 05:50:53 PM 37.0792 -80.7269 238° Southwest 422 486 36,000  Level Atlanta Center
Thu 05:51:53 PM 37.0156 -80.8492 237° Southwest 422 486 36,000  Level Atlanta Center
Thu 05:52:53 PM 36.9503 -80.9792 238° Southwest 416 479 36,000  Level Atlanta Center
Thu 05:53:53 PM 36.8886 -81.1008 238° Southwest 416 479 36,000  Level Atlanta Center
Thu 05:54:53 PM 36.8267 -81.2172 236° Southwest 421 484 36,000  Level Atlanta Center
Thu 05:55:53 PM 36.7667 -81.3361 238° Southwest 421 484 36,000  Level Atlanta Center
Thu 05:56:53 PM 36.7169 -81.4414 240° Southwest 408 470 36,000  Level Atlanta Center
Thu 05:57:53 PM 36.6528 -81.5625 237° Southwest 414 476 36,000  Level Atlanta Center
Thu 05:58:53 PM 36.5925 -81.6806 238° Southwest 420 483 36,000  Level Atlanta Center
Thu 05:59:53 PM 36.5300 -81.7989 237° Southwest 420 483 36,000  Level Atlanta Center
Thu 06:00:53 PM 36.4636 -81.9272 237° Southwest 413 475 36,000  Level Atlanta Center
Thu 06:01:53 PM 36.4028 -82.0447 237° Southwest 413 475 36,000  Level Atlanta Center
Thu 06:02:53 PM 36.3400 -82.1597 236° Southwest 413 475 36,000  Level Atlanta Center
Thu 06:03:53 PM 36.2772 -82.2744 236° Southwest 413 475 36,000  Level Atlanta Center
Thu 06:04:53 PM 36.2161 -82.3917 237° Southwest 413 475 36,000  Level Atlanta Center
Thu 06:05:53 PM 36.1550 -82.5061 237° Southwest 413 475 36,000  Level Atlanta Center
Thu 06:06:53 PM 36.0961 -82.6228 238° Southwest 413 475 36,000  Level Atlanta Center
Thu 06:07:53 PM 36.0347 -82.7342 236° Southwest 407 468 36,000  Level Atlanta Center
Thu 06:08:53 PM 35.9733 -82.8483 236° Southwest 407 468 36,000  Level Atlanta Center
Thu 06:09:53 PM 35.9117 -82.9644 237° Southwest 407 468 36,000  Level Atlanta Center
Thu 06:10:53 PM 35.8522 -83.0781 237° Southwest 407 468 36,000  Level Atlanta Center
Thu 06:11:53 PM 35.7883 -83.1914 235° Southwest 407 468 36,000  Level Atlanta Center
Thu 06:12:53 PM 35.7306 -83.3019 237° Southwest 402 463 36,000  Level Atlanta Center
Thu 06:13:53 PM 35.6686 -83.4175 237° Southwest 402 463 36,000  Level Atlanta Center
Thu 06:14:53 PM 35.6067 -83.5306 236° Southwest 402 463 36,000  Level Atlanta Center
Thu 06:15:53 PM 35.5444 -83.6406 235° Southwest 402 463 36,000  Level Atlanta Center
Thu 06:16:53 PM 35.4842 -83.7506 236° Southwest 402 463 36,000  Level Atlanta Center
Thu 06:17:53 PM 35.4219 -83.8656 236° Southwest 402 463 36,000  Level Atlanta Center
Thu 06:18:53 PM 35.3614 -83.9750 236° Southwest 402 463 36,000  Level Atlanta Center
Thu 06:19:53 PM 35.3011 -84.0819 235° Southwest 402 463 36,000  Level Atlanta Center
Thu 06:20:53 PM 35.2467 -84.1761 235° Southwest 397 457 36,000  Level Atlanta Center
Thu 06:21:53 PM 35.1903 -84.2828 237° Southwest 392 451 36,000  Level Atlanta Center
Thu 06:22:53 PM 35.1314 -84.3892 236° Southwest 392 451 36,000  Level Atlanta Center
Thu 06:23:53 PM 35.0728 -84.4931 235° Southwest 387 445 36,000  Level Atlanta Center
Thu 06:24:53 PM 35.0139 -84.5967 235° Southwest 387 445 36,000  Level Atlanta Center
Thu 06:25:53 PM 34.9528 -84.7028 235° Southwest 387 445 36,000  Level Atlanta Center
Thu 06:26:53 PM 34.8939 -84.8061 235° Southwest 382 440 36,000  Level Atlanta Center
Thu 06:27:53 PM 34.8347 -84.9119 236° Southwest 382 440 36,000  Level Atlanta Center
Thu 06:28:53 PM 34.7733 -85.0175 235° Southwest 382 440 36,000  Level Atlanta Center
Thu 06:29:53 PM 34.7142 -85.1228 236° Southwest 382 440 36,000 -350 Level Atlanta Center
Thu 06:30:53 PM 34.6547 -85.2281 236° Southwest 382 440 35,300 -1,350 Descending Atlanta Center
Thu 06:31:53 PM 34.5931 -85.3308 234° Southwest 382 440 33,300 -2,100 Descending Atlanta Center
Thu 06:32:53 PM 34.5356 -85.4383 237° Southwest 382 440 31,100 -2,150 Descending Atlanta Center
Thu 06:33:53 PM 34.4717 -85.5406 233° Southwest 377 434 29,000 -2,300 Descending Atlanta Center
Thu 06:34:53 PM 34.4100 -85.6503 236° Southwest 382 440 26,500 -2,450 Descending Atlanta Center
Thu 06:35:53 PM 34.3500 -85.7597 236° Southwest 392 451 24,100 -2,250 Descending Atlanta Center
Thu 06:36:53 PM 34.2881 -85.8592 233° Southwest 387 445 22,000 -1,650 Descending Atlanta Center
Thu 06:37:53 PM 34.2303 -85.9558 234° Southwest 376 433 20,800 -1,000 Descending Atlanta Center
Thu 06:38:53 PM 34.1681 -86.0622 235° Southwest 371 427 20,000 -400 Descending Atlanta Center
Thu 06:39:53 PM 34.1100 -86.1589 234° Southwest 371 427 20,000 -1,122 Level Atlanta Center
Thu 06:40:56 PM 34.0458 -86.2425 227° Southwest 292 336 17,700 -2,400 Descending Atlanta Center
Thu 06:41:53 PM 33.9864 -86.2986 218° Southwest 318 366 15,200 -2,667 Descending Atlanta Center
Thu 06:42:53 PM 33.9206 -86.3644 220° Southwest 312 359 12,500 -2,500 Descending Atlanta Center
Thu 06:43:53 PM 33.8567 -86.4278 219° Southwest 312 359 10,200 -2,150 Descending Atlanta Center
Thu 06:44:53 PM 33.7972 -86.4861 219° Southwest 295 339 8,200 -2,048 Descending Atlanta Center
Thu 06:45:59 PM 33.7375 -86.5442 219° Southwest 245 282 5,900 -1,950 Descending Atlanta Center
Thu 06:46:53 PM 33.6928 -86.5906 221° Southwest 255 293 4,300 -1,474 Descending Atlanta Center
Thu 06:47:53 PM 33.6458 -86.6364 219° Southwest 237 273 3,100 -1,150 Descending Atlanta Center
Thu 06:48:53 PM 33.6072 -86.6803 223° Southwest 216 249 2,000 -1,047 Descending Atlanta Center
Thu 06:49:19 PM 33.5964 -86.7022 239° Southwest 141 162 1,600 -759 Descending Atlanta Center
Thu 06:50:20 PM 33.5747 -86.7342 231° Southwest 116 133 900 -689 Descending Atlanta Center
Thu 06:52:00 PM 33.5639 -86.7523 226° Southwest  Level Estimated

Login

Don't have an account? Register now (free) for customized features, flight alerts, and more!